createdAt,value
2023-03-08T00:01:01.483Z,99516.25
2023-03-08T00:03:43.916Z,99516.25
2023-03-08T00:06:32.825Z,99501.03
2023-03-08T00:09:20.175Z,99501.03
2023-03-08T00:11:59.022Z,99495.44
2023-03-08T00:14:41.938Z,99495.44
2023-03-08T00:17:14.334Z,99493.78
2023-03-08T00:19:42.084Z,99483.38
2023-03-08T00:22:17.980Z,99481.72
2023-03-08T00:24:56.939Z,99486.50
2023-03-08T00:27:37.955Z,99484.75
2023-03-08T00:30:35.195Z,99497.28
2023-03-08T00:33:14.866Z,99481.59
2023-03-08T00:35:50.565Z,99475.66
2023-03-08T00:38:27.975Z,99476.81
2023-03-08T00:41:04.522Z,99478.34
2023-03-08T00:43:45.132Z,99473.06
2023-03-08T00:46:18.724Z,99461.34
2023-03-08T00:48:57.207Z,99452.91
2023-03-08T00:54:25.048Z,99445.75
2023-03-08T00:57:10.476Z,99434.91
2023-03-08T00:59:38.908Z,99430.56
2023-03-08T01:02:22.811Z,99427.97
2023-03-08T01:04:58.524Z,99429.50
2023-03-08T01:10:26.073Z,99413.38
2023-03-08T01:16:11.198Z,99409.72
2023-03-08T01:18:57.992Z,99390.41
2023-03-08T01:21:37.057Z,99394.75
2023-03-08T01:24:10.700Z,99387.00
2023-03-08T01:27:00.811Z,99384.56
2023-03-08T01:29:30.395Z,99384.44
2023-03-08T01:31:58.034Z,99377.53
2023-03-08T01:34:32.989Z,99360.22
2023-03-08T01:37:21.176Z,99354.84
2023-03-08T01:40:09.044Z,99352.72
2023-03-08T01:42:48.192Z,99347.81
2023-03-08T01:45:42.590Z,99341.25
2023-03-08T01:48:16.985Z,99314.69
2023-03-08T01:54:08.001Z,99308.16
2023-03-08T01:56:33.787Z,99292.03
2023-03-08T01:59:00.874Z,99285.94
2023-03-08T02:01:27.623Z,99275.91
2023-03-08T02:03:54.295Z,99262.09
2023-03-08T02:06:21.671Z,99264.72
2023-03-08T02:08:48.543Z,99257.03
2023-03-08T02:11:18.702Z,99248.50
2023-03-08T02:13:45.394Z,99246.84
2023-03-08T02:16:13.307Z,99235.03
2023-03-08T02:18:49.983Z,99236.56
2023-03-08T02:21:16.732Z,99226.84
2023-03-08T02:23:43.486Z,99218.31
2023-03-08T02:26:10.287Z,99211.75
2023-03-08T02:28:37.227Z,99217.38
2023-03-08T02:31:03.849Z,99211.63
2023-03-08T02:33:39.652Z,99210.69
2023-03-08T02:36:08.439Z,99210.22
2023-03-08T02:38:35.671Z,99211.38
2023-03-08T02:41:02.492Z,99208.13
2023-03-08T02:43:29.154Z,99200.88
2023-03-08T02:45:55.812Z,99191.19
2023-03-08T02:48:22.965Z,99189.06
2023-03-08T02:50:49.650Z,99176.56
2023-03-08T02:53:16.393Z,99165.69
2023-03-08T02:55:43.153Z,99160.44
2023-03-08T02:58:10.961Z,99162.78
2023-03-08T03:00:38.503Z,99165.09
2023-03-08T03:03:05.471Z,99155.41
2023-03-08T03:05:32.398Z,99152.13
2023-03-08T03:07:59.514Z,99146.06
2023-03-08T03:10:26.341Z,99139.63
2023-03-08T03:12:53.226Z,99131.94
2023-03-08T03:15:20.136Z,99123.88
2023-03-08T03:17:46.876Z,99119.41
2023-03-08T03:20:13.852Z,99123.75
2023-03-08T03:22:40.688Z,99112.53
2023-03-08T03:25:07.988Z,99114.41
2023-03-08T03:27:34.751Z,99107.50
2023-03-08T03:30:01.685Z,99108.66
2023-03-08T03:32:28.568Z,99086.94
2023-03-08T03:34:55.430Z,99081.69
2023-03-08T03:37:22.565Z,99080.06
2023-03-08T03:39:49.285Z,99084.31
2023-03-08T03:42:16.448Z,99079.09
2023-03-08T03:44:43.618Z,99071.38
2023-03-08T03:47:10.688Z,99068.94
2023-03-08T03:49:37.585Z,99065.66
2023-03-08T03:52:04.566Z,99053.16
2023-03-08T03:54:31.333Z,99050.38
2023-03-08T03:57:00.474Z,99042.31
2023-03-08T03:59:27.361Z,99036.22
2023-03-08T04:01:54.239Z,99037.75
2023-03-08T04:04:21.565Z,99039.72
2023-03-08T04:06:48.569Z,99032.84
2023-03-08T04:09:16.441Z,99029.56
2023-03-08T04:11:43.338Z,99026.28
2023-03-08T04:14:10.557Z,99029.44
2023-03-08T04:16:39.929Z,99019.75
2023-03-08T04:19:09.038Z,99024.50
2023-03-08T04:21:35.827Z,99018.47
2023-03-08T04:24:03.143Z,99016.00
2023-03-08T04:26:32.206Z,99002.72
2023-03-08T04:28:59.192Z,99008.63
2023-03-08T04:31:27.961Z,99009.00
2023-03-08T04:33:55.669Z,99006.88
2023-03-08T04:36:23.050Z,99007.38
2023-03-08T04:38:50.403Z,99004.44
2023-03-08T04:41:17.532Z,98991.13
2023-03-08T04:43:44.724Z,98994.41
2023-03-08T04:46:11.995Z,98990.31
2023-03-08T04:48:38.873Z,98987.88
2023-03-08T04:51:07.602Z,98977.34
2023-03-08T04:53:35.035Z,98969.31
2023-03-08T04:56:02.408Z,98966.03
2023-03-08T04:58:29.627Z,98962.06
2023-03-08T05:00:56.508Z,98964.75
2023-03-08T05:03:23.827Z,98968.22
2023-03-08T05:05:51.990Z,98972.22
2023-03-08T05:08:19.129Z,98981.75
2023-03-08T05:10:49.141Z,98981.63
2023-03-08T05:13:16.101Z,98972.44
2023-03-08T05:15:43.094Z,98969.25
2023-03-08T05:18:09.936Z,98957.13
2023-03-08T05:20:36.883Z,98941.50
2023-03-08T05:23:03.701Z,98928.69
2023-03-08T05:25:31.782Z,98931.94
2023-03-08T05:27:58.634Z,98938.63
2023-03-08T05:30:25.402Z,98933.72
2023-03-08T05:32:52.126Z,98935.97
2023-03-08T05:35:18.939Z,98927.69
2023-03-08T05:37:45.668Z,98927.81
2023-03-08T05:40:12.905Z,98929.94
2023-03-08T05:42:42.061Z,98934.47
2023-03-08T05:45:09.264Z,98923.03
2023-03-08T05:47:36.077Z,98921.19
2023-03-08T05:50:02.873Z,98920.50
2023-03-08T05:52:32.784Z,98926.22
2023-03-08T05:55:00.950Z,98923.53
2023-03-08T05:57:28.660Z,98917.69
2023-03-08T05:59:55.521Z,98927.03
2023-03-08T06:02:22.305Z,98913.97
2023-03-08T06:04:49.346Z,98914.91
2023-03-08T06:07:16.361Z,98924.69
2023-03-08T06:09:43.265Z,98908.84
2023-03-08T06:12:10.171Z,98893.81
2023-03-08T06:14:37.036Z,98885.53
2023-03-08T06:17:06.229Z,98878.50
2023-03-08T06:19:33.179Z,98867.88
2023-03-08T06:22:00.157Z,98845.22
2023-03-08T06:24:27.036Z,98839.38
2023-03-08T06:26:55.806Z,98837.50
2023-03-08T06:29:23.192Z,98842.03
2023-03-08T06:31:50.078Z,98842.59
2023-03-08T06:34:17.018Z,98840.72
2023-03-08T06:36:44.116Z,98834.88
2023-03-08T06:39:11.015Z,98832.16
2023-03-08T06:41:38.063Z,98840.31
2023-03-08T06:44:05.127Z,98838.09
2023-03-08T06:46:32.257Z,98839.00
2023-03-08T06:49:00.553Z,98843.53
2023-03-08T06:51:27.421Z,98852.84
2023-03-08T06:53:54.270Z,98854.59
2023-03-08T06:56:21.329Z,98856.34
2023-03-08T06:58:48.150Z,98848.03
2023-03-08T07:01:15.280Z,98853.38
2023-03-08T07:03:45.822Z,98849.16
2023-03-08T07:06:12.894Z,98849.59
2023-03-08T07:08:40.427Z,98863.72
2023-03-08T07:11:10.525Z,98857.41
2023-03-08T07:13:38.073Z,98853.03
2023-03-08T07:16:09.822Z,98855.59
2023-03-08T07:18:37.124Z,98853.59
2023-03-08T07:21:04.300Z,98856.84
2023-03-08T07:23:33.622Z,98867.38
2023-03-08T07:26:04.067Z,98866.19
2023-03-08T07:28:31.005Z,98885.47
2023-03-08T07:30:58.044Z,98890.72
2023-03-08T07:33:25.055Z,98879.94
2023-03-08T07:35:52.178Z,98876.78
2023-03-08T07:38:19.648Z,98862.41
2023-03-08T07:40:46.815Z,98848.81
2023-03-08T07:43:13.890Z,98846.47
2023-03-08T07:45:43.134Z,98846.91
2023-03-08T07:48:10.393Z,98849.00
2023-03-08T07:50:37.561Z,98845.47
2023-03-08T07:53:05.020Z,98841.91
2023-03-08T07:55:32.346Z,98841.22
2023-03-08T07:57:59.420Z,98840.47
2023-03-08T08:00:27.189Z,98846.56
2023-03-08T08:02:54.456Z,98838.56
2023-03-08T08:05:22.419Z,98846.66
2023-03-08T08:07:51.670Z,98858.31
2023-03-08T08:10:18.898Z,98855.97
2023-03-08T08:12:46.186Z,98856.78
2023-03-08T08:15:13.259Z,98850.47
2023-03-08T08:17:40.487Z,98845.66
2023-03-08T08:20:09.320Z,98845.66
2023-03-08T08:22:40.384Z,98848.13
2023-03-08T08:25:10.205Z,98850.53
2023-03-08T08:27:37.205Z,98846.91
2023-03-08T08:30:06.358Z,98849.72
2023-03-08T08:32:35.770Z,98851.38
2023-03-08T08:35:07.354Z,98858.16
2023-03-08T08:40:25.752Z,98867.78
2023-03-08T08:42:56.174Z,98866.97
2023-03-08T08:45:26.128Z,98866.16
2023-03-08T08:47:54.869Z,98881.34
2023-03-08T08:50:23.996Z,98870.13
2023-03-08T08:52:51.622Z,98874.47
2023-03-08T08:55:18.685Z,98875.28
2023-03-08T08:57:46.072Z,98865.56
2023-03-08T09:00:13.982Z,98859.41
2023-03-08T09:02:41.151Z,98849.38
2023-03-08T09:05:14.632Z,98842.03
2023-03-08T09:07:42.773Z,98821.44
2023-03-08T09:10:10.173Z,98805.69
2023-03-08T09:12:40.019Z,98814.03
2023-03-08T09:15:07.786Z,98813.59
2023-03-08T09:17:38.142Z,98811.97
2023-03-08T09:20:06.985Z,98823.09
2023-03-08T09:22:34.113Z,98827.09
2023-03-08T09:25:01.359Z,98846.25
2023-03-08T09:27:30.599Z,98841.94
2023-03-08T09:29:58.536Z,98848.72
2023-03-08T09:32:26.255Z,98836.31
2023-03-08T09:34:55.994Z,98833.88
2023-03-08T09:37:23.123Z,98837.41
2023-03-08T09:39:51.631Z,98847.00
2023-03-08T09:42:21.772Z,98837.66
2023-03-08T09:44:49.181Z,98835.59
2023-03-08T09:47:19.274Z,98846.81
2023-03-08T09:49:48.531Z,98831.50
2023-03-08T09:52:18.114Z,98835.88
2023-03-08T09:54:46.441Z,98839.75
2023-03-08T09:57:17.132Z,98846.44
2023-03-08T09:59:54.890Z,98838.63
2023-03-08T10:02:25.565Z,98861.44
2023-03-08T10:05:11.513Z,98842.16
2023-03-08T10:07:42.542Z,98844.88
2023-03-08T10:10:10.130Z,98848.38
2023-03-08T10:12:44.995Z,98844.66
2023-03-08T10:15:15.525Z,98821.41
2023-03-08T10:17:43.803Z,98817.91
2023-03-08T10:20:13.863Z,98820.34
2023-03-08T10:22:43.105Z,98814.28
2023-03-08T10:25:18.866Z,98819.06
2023-03-08T10:27:47.685Z,98826.75
2023-03-08T10:30:16.980Z,98836.91
2023-03-08T10:32:45.105Z,98829.41
2023-03-08T10:35:12.210Z,98829.03
2023-03-08T10:37:39.247Z,98834.75
2023-03-08T10:40:08.968Z,98825.63
2023-03-08T10:42:36.785Z,98826.88
2023-03-08T10:45:04.443Z,98825.34
2023-03-08T10:47:32.829Z,98826.28
2023-03-08T10:50:03.036Z,98817.13
2023-03-08T10:52:32.932Z,98814.75
2023-03-08T10:55:02.423Z,98811.25
2023-03-08T10:57:29.900Z,98826.19
2023-03-08T11:00:00.444Z,98815.41
2023-03-08T11:02:27.501Z,98807.88
2023-03-08T11:04:56.777Z,98809.97
2023-03-08T11:07:24.600Z,98807.25
2023-03-08T11:09:51.594Z,98803.28
2023-03-08T11:12:21.646Z,98814.94
2023-03-08T11:14:48.804Z,98825.47
2023-03-08T11:17:19.008Z,98817.47
2023-03-08T11:19:51.496Z,98817.13
2023-03-08T11:22:21.842Z,98817.56
2023-03-08T11:24:51.996Z,98815.56
2023-03-08T11:27:24.888Z,98814.41
2023-03-08T11:29:55.450Z,98807.88
2023-03-08T11:32:30.749Z,98825.25
2023-03-08T11:34:58.899Z,98810.50
2023-03-08T11:37:28.845Z,98812.38
2023-03-08T11:39:56.581Z,98825.81
2023-03-08T11:42:26.680Z,98801.03
2023-03-08T11:44:54.066Z,98797.75
2023-03-08T11:47:24.138Z,98804.19
2023-03-08T11:49:54.357Z,98814.50
2023-03-08T11:52:21.588Z,98810.88
2023-03-08T11:54:51.657Z,98803.63
2023-03-08T11:57:18.973Z,98810.97
2023-03-08T11:59:50.019Z,98816.91
2023-03-08T12:02:22.912Z,98817.75
2023-03-08T12:04:56.237Z,98813.34
2023-03-08T12:07:28.461Z,98817.75
2023-03-08T12:09:58.748Z,98827.44
2023-03-08T12:12:29.075Z,98822.66
2023-03-08T12:14:59.306Z,98819.03
2023-03-08T12:17:29.485Z,98807.81
2023-03-08T12:19:56.784Z,98806.16
2023-03-08T12:22:27.091Z,98805.34
2023-03-08T12:24:59.648Z,98798.47
2023-03-08T12:27:27.270Z,98806.78
2023-03-08T12:29:57.688Z,98807.16
2023-03-08T12:32:25.203Z,98795.47
2023-03-08T12:34:55.496Z,98802.63
2023-03-08T12:37:24.985Z,98798.09
2023-03-08T12:39:55.010Z,98810.50
2023-03-08T12:42:25.067Z,98800.81
2023-03-08T12:44:52.121Z,98798.38
2023-03-08T12:47:22.349Z,98779.47
2023-03-08T12:49:51.891Z,98791.38
2023-03-08T12:52:19.277Z,98792.06
2023-03-08T12:54:54.306Z,98789.19
2023-03-08T12:57:23.230Z,98792.34
2023-03-08T12:59:56.692Z,98785.00
2023-03-08T13:02:23.965Z,98783.75
2023-03-08T13:05:01.437Z,98782.09
2023-03-08T13:07:31.419Z,98795.56
2023-03-08T13:10:02.866Z,98790.69
2023-03-08T13:12:31.361Z,98803.88
2023-03-08T13:14:59.815Z,98805.03
2023-03-08T13:17:29.863Z,98807.75
2023-03-08T13:19:58.485Z,98809.63
2023-03-08T13:22:25.850Z,98806.72
2023-03-08T13:24:56.874Z,98795.88
2023-03-08T13:27:30.385Z,98791.78
2023-03-08T13:30:00.446Z,98797.38
2023-03-08T13:32:27.509Z,98792.16
2023-03-08T13:34:57.503Z,98790.63
2023-03-08T13:37:25.505Z,98787.81
2023-03-08T13:39:54.378Z,98793.41
2023-03-08T13:42:25.076Z,98783.50
2023-03-08T13:44:52.785Z,98788.81
2023-03-08T13:47:23.131Z,98772.13
2023-03-08T13:49:52.019Z,98778.66
2023-03-08T13:52:21.599Z,98767.88
2023-03-08T13:54:55.202Z,98777.19
2023-03-08T13:57:26.511Z,98771.72
2023-03-08T13:59:58.146Z,98777.41
2023-03-08T14:02:26.730Z,98761.50
2023-03-08T14:04:54.495Z,98758.78
2023-03-08T14:07:24.620Z,98763.34
2023-03-08T14:09:51.791Z,98757.03
2023-03-08T14:12:20.802Z,98758.28
2023-03-08T14:14:52.092Z,98755.94
2023-03-08T14:17:22.191Z,98735.94
2023-03-08T14:19:53.667Z,98745.25
2023-03-08T14:22:36.177Z,98732.50
2023-03-08T14:25:05.728Z,98726.91
2023-03-08T14:27:33.586Z,98729.31
2023-03-08T14:30:01.967Z,98735.03
2023-03-08T14:32:31.422Z,98734.66
2023-03-08T14:35:01.460Z,98724.25
2023-03-08T14:37:29.906Z,98713.41
2023-03-08T14:40:15.153Z,98709.88
2023-03-08T14:42:43.232Z,98703.53
2023-03-08T14:45:13.219Z,98701.63
2023-03-08T14:47:49.188Z,98699.72
2023-03-08T14:50:24.453Z,98701.00
2023-03-08T14:52:53.186Z,98694.63
2023-03-08T14:55:22.679Z,98700.72
2023-03-08T14:57:50.706Z,98697.53
2023-03-08T15:00:18.044Z,98699.63
2023-03-08T15:02:45.166Z,98689.22
2023-03-08T15:05:14.257Z,98693.25
2023-03-08T15:07:43.251Z,98683.69
2023-03-08T15:10:16.994Z,98684.50
2023-03-08T15:12:44.040Z,98674.88
2023-03-08T15:15:12.869Z,98688.53
2023-03-08T15:17:39.803Z,98671.69
2023-03-08T15:20:07.136Z,98668.53
2023-03-08T15:22:37.086Z,98662.13
2023-03-08T15:25:07.844Z,98669.34
2023-03-08T15:27:35.068Z,98664.09
2023-03-08T15:30:02.003Z,98666.91
2023-03-08T15:32:29.043Z,98660.84
2023-03-08T15:34:55.944Z,98661.56
2023-03-08T15:37:23.062Z,98663.56
2023-03-08T15:39:50.204Z,98656.25
2023-03-08T15:42:18.763Z,98667.03
2023-03-08T15:44:45.644Z,98658.16
2023-03-08T15:47:12.738Z,98668.22
2023-03-08T15:49:39.866Z,98658.16
2023-03-08T15:52:08.598Z,98660.53
2023-03-08T15:54:35.909Z,98639.69
2023-03-08T15:57:02.878Z,98630.47
2023-03-08T15:59:29.891Z,98634.59
2023-03-08T16:01:56.800Z,98639.03
2023-03-08T16:04:23.916Z,98648.28
2023-03-08T16:06:51.174Z,98650.69
2023-03-08T16:09:18.570Z,98659.59
2023-03-08T16:11:47.868Z,98662.84
2023-03-08T16:14:18.205Z,98666.91
2023-03-08T16:16:46.209Z,98658.94
2023-03-08T16:19:13.335Z,98667.81
2023-03-08T16:21:40.289Z,98660.66
2023-03-08T16:24:07.414Z,98669.88
2023-03-08T16:26:34.374Z,98665.53
2023-03-08T16:29:01.399Z,98664.34
2023-03-08T16:31:28.403Z,98660.72
2023-03-08T16:33:55.504Z,98653.94
2023-03-08T16:36:22.730Z,98655.19
2023-03-08T16:38:49.818Z,98648.75
2023-03-08T16:41:17.226Z,98643.97
2023-03-08T16:43:47.410Z,98637.16
2023-03-08T16:46:17.470Z,98639.16
2023-03-08T16:48:44.484Z,98646.41
2023-03-08T16:51:14.566Z,98649.22
2023-03-08T16:53:41.529Z,98653.56
2023-03-08T16:56:08.753Z,98643.06
2023-03-08T16:58:35.847Z,98648.69
2023-03-08T17:01:10.598Z,98648.22
2023-03-08T17:03:38.621Z,98645.28
2023-03-08T17:06:08.444Z,98648.50
2023-03-08T17:08:36.104Z,98641.66
2023-03-08T17:11:06.553Z,98656.16
2023-03-08T17:13:40.641Z,98644.38
2023-03-08T17:16:11.119Z,98640.00
2023-03-08T17:18:38.440Z,98638.75
2023-03-08T17:21:05.934Z,98642.75
2023-03-08T17:23:33.251Z,98648.72
2023-03-08T17:26:03.257Z,98641.84
2023-03-08T17:28:30.612Z,98652.19
2023-03-08T17:30:58.376Z,98646.94
2023-03-08T17:33:26.982Z,98649.66
2023-03-08T17:38:53.180Z,98655.13
2023-03-08T17:41:34.153Z,98650.22
2023-03-08T17:44:07.378Z,98661.72
2023-03-08T17:46:40.715Z,98654.84
2023-03-08T17:49:15.900Z,98654.78
2023-03-08T17:51:48.805Z,98648.69
2023-03-08T17:54:37.209Z,98651.44
2023-03-08T17:57:06.259Z,98656.22
2023-03-08T17:59:39.951Z,98653.88
2023-03-08T18:02:50.516Z,98651.06
2023-03-08T18:05:22.528Z,98651.44
2023-03-08T18:07:50.731Z,98639.03
2023-03-08T18:10:19.186Z,98640.28
2023-03-08T18:12:48.246Z,98637.47
2023-03-08T18:15:19.496Z,98632.41
2023-03-08T18:17:48.732Z,98636.94
2023-03-08T18:20:16.796Z,98641.00
2023-03-08T18:22:45.251Z,98635.38
2023-03-08T18:25:13.256Z,98629.41
2023-03-08T18:27:42.560Z,98644.69
2023-03-08T18:30:31.400Z,98651.94
2023-03-08T18:33:00.513Z,98663.97
2023-03-08T18:35:28.642Z,98663.97
2023-03-08T18:37:57.468Z,98662.34
2023-03-08T18:40:27.874Z,98677.19
2023-03-08T18:42:56.334Z,98681.97
2023-03-08T18:45:26.332Z,98678.00
2023-03-08T18:47:54.475Z,98689.22
2023-03-08T18:50:23.463Z,98686.88
2023-03-08T18:52:51.909Z,98677.66
2023-03-08T18:55:21.490Z,98671.56
2023-03-08T18:57:49.528Z,98666.63
2023-03-08T19:00:18.218Z,98666.09
2023-03-08T19:02:46.911Z,98669.16
2023-03-08T19:05:16.911Z,98664.28
2023-03-08T19:07:45.444Z,98650.63
2023-03-08T19:10:15.954Z,98648.97
2023-03-08T19:12:44.804Z,98653.34
2023-03-08T19:15:13.564Z,98668.06
2023-03-08T19:17:41.884Z,98670.09
2023-03-08T19:20:10.894Z,98672.78
2023-03-08T19:22:41.775Z,98657.16
2023-03-08T19:25:10.576Z,98661.44
2023-03-08T19:27:38.555Z,98662.19
2023-03-08T19:30:06.882Z,98677.03
2023-03-08T19:32:35.512Z,98676.56
2023-03-08T19:35:05.250Z,98678.09
2023-03-08T19:37:33.303Z,98685.31
2023-03-08T19:40:01.612Z,98696.44
2023-03-08T19:42:31.264Z,98687.41
2023-03-08T19:44:59.210Z,98689.03
2023-03-08T19:47:27.238Z,98686.06
2023-03-08T19:49:55.054Z,98684.75
2023-03-08T19:52:23.701Z,98667.13
2023-03-08T19:54:51.702Z,98667.50
2023-03-08T19:57:19.558Z,98652.94
2023-03-08T19:59:48.199Z,98650.97
2023-03-08T20:02:16.660Z,98644.16
2023-03-08T20:04:44.575Z,98621.94
2023-03-08T20:07:12.507Z,98621.28
2023-03-08T20:09:43.086Z,98615.78
2023-03-08T20:12:12.538Z,98621.13
2023-03-08T20:14:40.477Z,98622.84
2023-03-08T20:17:11.270Z,98626.91
2023-03-08T20:19:40.618Z,98638.56
2023-03-08T20:22:08.547Z,98641.38
2023-03-08T20:24:37.982Z,98677.44
2023-03-08T20:27:07.346Z,98689.97
2023-03-08T20:29:35.356Z,98688.00
2023-03-08T20:32:03.867Z,98687.19
2023-03-08T20:34:34.060Z,98699.53
2023-03-08T20:37:02.192Z,98695.91
2023-03-08T20:39:30.236Z,98696.72
2023-03-08T20:41:59.412Z,98696.66
2023-03-08T20:44:27.376Z,98718.19
2023-03-08T20:46:55.484Z,98731.38
2023-03-08T20:49:23.708Z,98737.34
2023-03-08T20:51:51.633Z,98756.06
2023-03-08T20:54:20.183Z,98756.41
2023-03-08T20:56:48.164Z,98764.38
2023-03-08T20:59:21.192Z,98763.91
2023-03-08T21:01:49.329Z,98765.88
2023-03-08T21:04:17.241Z,98763.81
2023-03-08T21:06:45.352Z,98757.38
2023-03-08T21:09:13.543Z,98761.34
2023-03-08T21:11:41.983Z,98754.13
2023-03-08T21:14:11.537Z,98758.47
2023-03-08T21:16:39.558Z,98756.00
2023-03-08T21:19:07.730Z,98764.06
2023-03-08T21:21:38.062Z,98768.41
2023-03-08T21:24:08.230Z,98765.97
2023-03-08T21:26:36.396Z,98763.97
2023-03-08T21:29:06.504Z,98762.34
2023-03-08T21:31:36.088Z,98763.59
2023-03-08T21:34:07.103Z,98760.91
2023-03-08T21:36:35.728Z,98766.34
2023-03-08T21:39:04.286Z,98765.28
2023-03-08T21:41:33.955Z,98759.75
2023-03-08T21:44:04.412Z,98766.28
2023-03-08T21:46:33.253Z,98777.59
2023-03-08T21:49:01.270Z,98781.31
2023-03-08T21:51:29.292Z,98779.81
2023-03-08T21:53:59.217Z,98786.69
2023-03-08T21:56:27.549Z,98777.09
2023-03-08T21:58:56.281Z,98775.94
2023-03-08T22:01:25.482Z,98758.75
2023-03-08T22:03:53.780Z,98751.59
2023-03-08T22:06:22.803Z,98745.97
2023-03-08T22:08:51.052Z,98735.56
2023-03-08T22:11:19.913Z,98743.16
2023-03-08T22:13:51.071Z,98753.22
2023-03-08T22:16:19.085Z,98754.41
2023-03-08T22:18:47.207Z,98747.16
2023-03-08T22:21:15.230Z,98748.44
2023-03-08T22:23:43.094Z,98766.50
2023-03-08T22:26:11.398Z,98772.13
2023-03-08T22:28:39.621Z,98764.19
2023-03-08T22:31:10.632Z,98758.19
2023-03-08T22:33:38.642Z,98756.66
2023-03-08T22:36:07.448Z,98760.72
2023-03-08T22:38:35.639Z,98767.63
2023-03-08T22:41:03.455Z,98766.06
2023-03-08T22:43:31.321Z,98780.19
2023-03-08T22:46:06.367Z,98791.06
2023-03-08T22:48:34.291Z,98785.09
2023-03-08T22:51:10.702Z,98785.19
2023-03-08T22:53:39.204Z,98778.00
2023-03-08T22:56:07.358Z,98776.47
2023-03-08T22:58:35.062Z,98774.50
2023-03-08T23:01:02.845Z,98778.56
2023-03-08T23:03:31.992Z,98789.44
2023-03-08T23:05:59.474Z,98783.44
2023-03-08T23:08:28.058Z,98785.88
2023-03-08T23:10:55.486Z,98777.47
2023-03-08T23:13:33.314Z,98781.09
2023-03-08T23:16:02.496Z,98798.75
2023-03-08T23:18:29.891Z,98796.75
2023-03-08T23:20:57.336Z,98794.78
2023-03-08T23:23:25.621Z,98798.75
2023-03-08T23:25:52.899Z,98817.56
2023-03-08T23:28:21.293Z,98823.53
2023-03-08T23:30:48.476Z,98829.16
2023-03-08T23:33:15.874Z,98835.16
2023-03-08T23:35:42.986Z,98831.06
2023-03-08T23:38:10.109Z,98835.84
2023-03-08T23:40:39.953Z,98839.03
2023-03-08T23:43:07.342Z,98838.22
2023-03-08T23:45:34.538Z,98845.34
2023-03-08T23:48:03.424Z,98850.88
2023-03-08T23:50:30.930Z,98855.69
2023-03-08T23:52:57.997Z,98859.31
2023-03-08T23:55:25.234Z,98860.84
2023-03-08T23:57:52.239Z,98872.34
